Terminal Aerodrome Forecast
Issued by NWS

Home | Current Version | Previous Version | Text Only | Print | Product List | Glossary On
Versions: 1 2 3 4 5 6 7 8 9 10 11 12 13 14 15
000
FTUS42 KMLB 021739
TAFSFB
TAF
KSFB 021739Z 0218/0318 20004KT P6SM SCT025 BKN060 OVC250
     FM021900 21006KT P6SM VCTS SCT030CB OVC050
      TEMPO 0220/0223 VRB15G30KT 2SM TSRA BKN015CB OVC030
     FM030000 20005KT P6SM VCSH SCT020 OVC040
     FM030300 18003KT P6SM SCT030 OVC060=

USA.gov is the U.S. government's official web portal to all federal, state and local government web resources and services.